< < Back
Terminal Aerodrome Forecast


Current Version              Previous Versions:   1  2  3  4  5  6  7  8  9  

Terminal Aerodrome Forecast

653
FTUS42 KFFC 271734
TAFFTY
TAF
KFTY 271734Z 2718/2818 34012G22KT P6SM BKN035 BKN050
     FM272300 33013KT P6SM SCT040 BKN060
     FM280200 33008KT P6SM FEW060
     FM281500 35006KT P6SM SKC=

Latest METAR

569
SAUS70 KWBC 281400 RRC
MTRFTY
METAR KFTY 281353Z 35004KT 10SM CLR 01/M04 A3026 RMK AO2 SLP252
T00111044


USA.gov is the U.S. government's official web portal to all federal, state and local government web resources and services.